sensor_id;sensor_type;location;lat;lon;timestamp;pressure;altitude;pressure_sealevel;temperature;humidity
7754;BME280;3921;42.266;23.122;2022-09-20T00:01:48;95427.13;;;14.79;52.35
7754;BME280;3921;42.266;23.122;2022-09-20T00:04:23;95258.06;;;13.55;52.55
7754;BME280;3921;42.266;23.122;2022-09-20T00:07:08;95321.81;;;14.03;52.77
7754;BME280;3921;42.266;23.122;2022-09-20T00:09:37;95267.09;;;13.64;52.19
7754;BME280;3921;42.266;23.122;2022-09-20T00:12:05;95735.91;;;16.31;52.83
7754;BME280;3921;42.266;23.122;2022-09-20T00:14:34;95625.06;;;15.68;52.76
7754;BME280;3921;42.266;23.122;2022-09-20T00:17:07;95246.69;;;13.34;52.69
7754;BME280;3921;42.266;23.122;2022-09-20T00:19:36;95440.34;;;14.54;52.44
7754;BME280;3921;42.266;23.122;2022-09-20T00:22:07;95352.47;;;13.88;51.63
7754;BME280;3921;42.266;23.122;2022-09-20T00:24:34;95617.66;;;15.58;53.15
7754;BME280;3921;42.266;23.122;2022-09-20T00:27:02;95737.53;;;16.33;53.23
7754;BME280;3921;42.266;23.122;2022-09-20T00:29:32;95732.44;;;16.35;53.35
7754;BME280;3921;42.266;23.122;2022-09-20T00:32:05;95274.81;;;13.59;52.65
7754;BME280;3921;42.266;23.122;2022-09-20T00:34:34;95274.03;;;13.55;51.71
7754;BME280;3921;42.266;23.122;2022-09-20T00:37:21;95224.13;;;13.28;52.68
7754;BME280;3921;42.266;23.122;2022-09-20T00:39:48;95308.38;;;13.63;52.62
7754;BME280;3921;42.266;23.122;2022-09-20T00:42:16;95187.50;;;13.09;52.63
7754;BME280;3921;42.266;23.122;2022-09-20T00:44:53;95293.44;;;13.53;52.86
7754;BME280;3921;42.266;23.122;2022-09-20T00:47:31;95602.78;;;15.45;52.55
7754;BME280;3921;42.266;23.122;2022-09-20T00:50:06;95318.53;;;13.60;50.71
7754;BME280;3921;42.266;23.122;2022-09-20T00:52:45;95279.38;;;13.40;50.23
7754;BME280;3921;42.266;23.122;2022-09-20T00:55:18;95263.22;;;13.06;49.84
7754;BME280;3921;42.266;23.122;2022-09-20T00:57:47;95746.94;;;16.30;49.79
7754;BME280;3921;42.266;23.122;2022-09-20T01:00:22;95299.59;;;13.39;50.28
7754;BME280;3921;42.266;23.122;2022-09-20T01:02:55;95256.44;;;13.09;50.56
7754;BME280;3921;42.266;23.122;2022-09-20T01:05:24;95265.34;;;13.27;50.92
7754;BME280;3921;42.266;23.122;2022-09-20T01:07:53;95314.53;;;13.49;50.84
7754;BME280;3921;42.266;23.122;2022-09-20T01:10:22;95604.13;;;15.22;50.90
7754;BME280;3921;42.266;23.122;2022-09-20T01:12:53;95281.84;;;13.43;51.28
7754;BME280;3921;42.266;23.122;2022-09-20T01:15:24;95369.44;;;13.80;50.87
7754;BME280;3921;42.266;23.122;2022-09-20T01:17:54;95305.59;;;13.33;50.50
7754;BME280;3921;42.266;23.122;2022-09-20T01:20:31;95669.06;;;15.63;50.40
7754;BME280;3921;42.266;23.122;2022-09-20T01:23:17;95292.25;;;13.28;51.28
7754;BME280;3921;42.266;23.122;2022-09-20T01:26:27;95672.53;;;15.58;51.16
7754;BME280;3921;42.266;23.122;2022-09-20T01:29:08;95646.97;;;15.31;50.77
7754;BME280;3921;42.266;23.122;2022-09-20T01:31:42;95527.06;;;14.59;51.12
7754;BME280;3921;42.266;23.122;2022-09-20T01:34:13;95285.72;;;13.16;51.01
7754;BME280;3921;42.266;23.122;2022-09-20T01:36:43;95466.50;;;14.12;51.59
7754;BME280;3921;42.266;23.122;2022-09-20T01:39:28;95309.00;;;13.32;52.03
7754;BME280;3921;42.266;23.122;2022-09-20T01:42:04;95451.50;;;14.02;51.16
7754;BME280;3921;42.266;23.122;2022-09-20T01:44:37;95347.66;;;13.33;50.84
7754;BME280;3921;42.266;23.122;2022-09-20T01:47:12;95328.47;;;13.24;50.11
7754;BME280;3921;42.266;23.122;2022-09-20T01:49:52;95304.22;;;13.15;50.65
7754;BME280;3921;42.266;23.122;2022-09-20T02:01:55;95488.13;;;14.25;49.84
7754;BME280;3921;42.266;23.122;2022-09-20T02:04:51;95772.91;;;16.02;49.88
7754;BME280;3921;42.266;23.122;2022-09-20T02:07:39;95523.50;;;14.25;49.74
7754;BME280;3921;42.266;23.122;2022-09-20T02:10:30;95274.34;;;12.94;49.76
7754;BME280;3921;42.266;23.122;2022-09-20T02:13:03;95356.38;;;13.15;48.97
7754;BME280;3921;42.266;23.122;2022-09-20T02:19:28;95623.59;;;15.19;49.95
7754;BME280;3921;42.266;23.122;2022-09-20T02:22:09;95689.50;;;15.54;50.05
7754;BME280;3921;42.266;23.122;2022-09-20T02:24:44;95731.97;;;15.83;50.45
7754;BME280;3921;42.266;23.122;2022-09-20T02:27:22;95574.00;;;14.71;50.37
7754;BME280;3921;42.266;23.122;2022-09-20T02:30:03;95612.41;;;14.90;49.72
7754;BME280;3921;42.266;23.122;2022-09-20T02:35:51;95439.22;;;13.86;49.96
7754;BME280;3921;42.266;23.122;2022-09-20T02:38:41;95533.34;;;14.39;50.51
7754;BME280;3921;42.266;23.122;2022-09-20T02:41:36;95593.25;;;14.78;50.16
7754;BME280;3921;42.266;23.122;2022-09-20T02:44:15;95365.03;;;13.49;50.70
7754;BME280;3921;42.266;23.122;2022-09-20T02:46:52;95589.63;;;14.90;50.46
7754;BME280;3921;42.266;23.122;2022-09-20T02:49:30;95273.56;;;12.92;50.37
7754;BME280;3921;42.266;23.122;2022-09-20T02:52:27;95252.09;;;12.71;50.06
7754;BME280;3921;42.266;23.122;2022-09-20T02:55:01;95252.78;;;12.79;49.64
7754;BME280;3921;42.266;23.122;2022-09-20T02:57:42;95278.47;;;12.99;49.77
7754;BME280;3921;42.266;23.122;2022-09-20T03:16:51;95318.47;;;12.70;49.83
7754;BME280;3921;42.266;23.122;2022-09-20T03:19:32;95467.03;;;13.84;50.14
7754;BME280;3921;42.266;23.122;2022-09-20T03:22:12;95521.38;;;14.05;49.90
7754;BME280;3921;42.266;23.122;2022-09-20T03:24:56;95518.22;;;13.94;49.72
7754;BME280;3921;42.266;23.122;2022-09-20T03:27:31;95468.50;;;13.49;49.70
7754;BME280;3921;42.266;23.122;2022-09-20T03:30:19;95578.44;;;14.15;49.65
7754;BME280;3921;42.266;23.122;2022-09-20T03:33:00;95304.34;;;12.63;50.32
7754;BME280;3921;42.266;23.122;2022-09-20T03:35:44;95437.25;;;13.57;50.63
7754;BME280;3921;42.266;23.122;2022-09-20T03:41:46;95541.56;;;14.06;51.10
7754;BME280;3921;42.266;23.122;2022-09-20T03:44:49;95555.88;;;14.06;51.29
7754;BME280;3921;42.266;23.122;2022-09-20T03:53:36;95298.91;;;12.35;51.80
7754;BME280;3921;42.266;23.122;2022-09-20T03:56:36;95446.41;;;13.11;51.61
7754;BME280;3921;42.266;23.122;2022-09-20T03:59:25;95313.28;;;12.28;51.43
7754;BME280;3921;42.266;23.122;2022-09-20T04:02:15;95583.13;;;13.89;51.60
7754;BME280;3921;42.266;23.122;2022-09-20T04:04:53;95341.66;;;12.38;51.24
7754;BME280;3921;42.266;23.122;2022-09-20T04:18:27;95289.91;;;12.18;52.03
7754;BME280;3921;42.266;23.122;2022-09-20T04:21:36;95405.78;;;12.75;52.28
7754;BME280;3921;42.266;23.122;2022-09-20T04:24:15;95357.59;;;12.41;52.05
7754;BME280;3921;42.266;23.122;2022-09-20T04:26:54;95531.66;;;13.46;52.35
7754;BME280;3921;42.266;23.122;2022-09-20T04:29:30;95356.88;;;12.33;52.25
7754;BME280;3921;42.266;23.122;2022-09-20T04:32:06;95580.78;;;13.78;52.47
7754;BME280;3921;42.266;23.122;2022-09-20T04:34:45;95711.63;;;14.59;52.91
7754;BME280;3921;42.266;23.122;2022-09-20T04:40:24;95339.56;;;12.09;52.88
7754;BME280;3921;42.266;23.122;2022-09-20T04:47:14;95313.63;;;12.04;52.97
7754;BME280;3921;42.266;23.122;2022-09-20T04:56:27;95433.78;;;12.56;55.18
7754;BME280;3921;42.266;23.122;2022-09-20T04:59:19;95310.59;;;11.82;54.58
7754;BME280;3921;42.266;23.122;2022-09-20T05:05:31;95555.44;;;13.30;54.08
7754;BME280;3921;42.266;23.122;2022-09-20T05:08:37;95372.28;;;12.12;54.85
7754;BME280;3921;42.266;23.122;2022-09-20T05:11:39;95489.44;;;13.00;54.80
7754;BME280;3921;42.266;23.122;2022-09-20T05:17:52;95380.63;;;12.17;55.82
7754;BME280;3921;42.266;23.122;2022-09-20T05:20:41;95453.00;;;12.64;55.77
7754;BME280;3921;42.266;23.122;2022-09-20T05:23:35;95389.75;;;12.24;56.50
7754;BME280;3921;42.266;23.122;2022-09-20T05:26:36;95391.78;;;11.98;56.21
7754;BME280;3921;42.266;23.122;2022-09-20T05:29:25;95352.47;;;11.86;56.50
7754;BME280;3921;42.266;23.122;2022-09-20T05:32:01;95299.00;;;11.67;56.62
7754;BME280;3921;42.266;23.122;2022-09-20T05:38:12;95541.38;;;13.15;56.82
7754;BME280;3921;42.266;23.122;2022-09-20T06:11:56;95459.69;;;12.67;58.86
7754;BME280;3921;42.266;23.122;2022-09-20T06:14:56;95446.41;;;12.56;58.37
7754;BME280;3921;42.266;23.122;2022-09-20T07:06:09;95440.75;;;12.38;54.44
7754;BME280;3921;42.266;23.122;2022-09-20T07:12:03;95358.38;;;11.80;52.08
7754;BME280;3921;42.266;23.122;2022-09-20T07:24:22;95338.50;;;11.62;52.88
7754;BME280;3921;42.266;23.122;2022-09-20T07:40:57;95406.97;;;12.53;52.93
7754;BME280;3921;42.266;23.122;2022-09-20T07:43:49;95856.94;;;15.39;54.37
7754;BME280;3921;42.266;23.122;2022-09-20T07:47:21;95528.63;;;13.24;53.05
7754;BME280;3921;42.266;23.122;2022-09-20T07:50:27;95715.38;;;14.37;51.73
7754;BME280;3921;42.266;23.122;2022-09-20T07:53:24;95381.25;;;12.31;52.46
7754;BME280;3921;42.266;23.122;2022-09-20T07:56:11;95759.38;;;14.76;51.89
7754;BME280;3921;42.266;23.122;2022-09-20T07:58:59;95653.59;;;14.04;53.91
7754;BME280;3921;42.266;23.122;2022-09-20T08:01:50;95848.44;;;15.43;54.92
7754;BME280;3921;42.266;23.122;2022-09-20T08:06:30;95839.91;;;15.47;54.45
7754;BME280;3921;42.266;23.122;2022-09-20T08:07:40;95835.63;;;15.51;54.80
7754;BME280;3921;42.266;23.122;2022-09-20T08:10:35;95384.13;;;12.64;55.01
7754;BME280;3921;42.266;23.122;2022-09-20T08:13:29;95778.81;;;15.21;54.94
7754;BME280;3921;42.266;23.122;2022-09-20T08:16:07;95348.97;;;12.56;51.39
7754;BME280;3921;42.266;23.122;2022-09-20T08:18:53;95351.78;;;12.36;50.01
7754;BME280;3921;42.266;23.122;2022-09-20T08:21:52;95579.81;;;13.85;50.02
7754;BME280;3921;42.266;23.122;2022-09-20T08:24:24;95382.91;;;12.88;51.31
7754;BME280;3921;42.266;23.122;2022-09-20T08:26:57;95839.59;;;15.64;50.65
7754;BME280;3921;42.266;23.122;2022-09-20T08:29:45;95529.97;;;13.45;49.31
7754;BME280;3921;42.266;23.122;2022-09-20T08:32:26;95728.66;;;14.98;51.33
7754;BME280;3921;42.266;23.122;2022-09-20T08:35:03;95353.94;;;12.59;52.84
7754;BME280;3921;42.266;23.122;2022-09-20T08:37:42;95830.03;;;15.77;51.95
7754;BME280;3921;42.266;23.122;2022-09-20T08:40:15;95641.75;;;14.55;50.95
7754;BME280;3921;42.266;23.122;2022-09-20T08:43:04;95363.66;;;12.82;52.64
7754;BME280;3921;42.266;23.122;2022-09-20T08:45:37;95378.66;;;12.90;52.22
7754;BME280;3921;42.266;23.122;2022-09-20T08:48:28;95307.78;;;12.57;51.65
7754;BME280;3921;42.266;23.122;2022-09-20T08:51:21;95346.72;;;12.89;51.82
7754;BME280;3921;42.266;23.122;2022-09-20T08:53:56;95812.00;;;15.92;49.95
7754;BME280;3921;42.266;23.122;2022-09-20T08:56:34;95522.09;;;14.12;51.80
7754;BME280;3921;42.266;23.122;2022-09-20T08:59:16;95340.66;;;13.00;50.95
7754;BME280;3921;42.266;23.122;2022-09-20T09:10:38;95328.75;;;13.09;49.12
7754;BME280;3921;42.266;23.122;2022-09-20T09:13:17;95224.13;;;12.37;48.69
7754;BME280;3921;42.266;23.122;2022-09-20T09:16:08;95789.78;;;16.03;48.66
7754;BME280;3921;42.266;23.122;2022-09-20T09:18:53;95315.94;;;13.19;48.68
7754;BME280;3921;42.266;23.122;2022-09-20T09:21:30;95321.72;;;13.24;48.43
7754;BME280;3921;42.266;23.122;2022-09-20T09:24:49;95479.50;;;14.35;50.10
7754;BME280;3921;42.266;23.122;2022-09-20T09:43:25;95374.50;;;13.80;48.56
7754;BME280;3921;42.266;23.122;2022-09-20T09:47:10;95768.09;;;16.29;48.40
7754;BME280;3921;42.266;23.122;2022-09-20T09:49:21;95345.72;;;13.89;47.40
7754;BME280;3921;42.266;23.122;2022-09-20T09:52:10;95260.84;;;13.41;49.24
7754;BME280;3921;42.266;23.122;2022-09-20T09:54:53;95252.75;;;13.27;48.69
7754;BME280;3921;42.266;23.122;2022-09-20T09:57:40;95404.06;;;14.17;49.16
7754;BME280;3921;42.266;23.122;2022-09-20T10:00:37;95440.63;;;14.41;48.77
7754;BME280;3921;42.266;23.122;2022-09-20T10:06:22;95504.59;;;15.22;50.21
7754;BME280;3921;42.266;23.122;2022-09-20T10:09:24;95460.31;;;15.04;48.92
7754;BME280;3921;42.266;23.122;2022-09-20T10:12:26;95440.53;;;15.20;49.00
7754;BME280;3921;42.266;23.122;2022-09-20T10:15:40;95277.50;;;14.26;48.06
7754;BME280;3921;42.266;23.122;2022-09-20T10:18:36;95293.06;;;14.45;46.62
7754;BME280;3921;42.266;23.122;2022-09-20T10:21:32;95723.31;;;17.55;46.75
7754;BME280;3921;42.266;23.122;2022-09-20T10:24:49;95311.47;;;15.18;47.36
7754;BME280;3921;42.266;23.122;2022-09-20T10:28:14;95719.03;;;18.12;46.76
7754;BME280;3921;42.266;23.122;2022-09-20T10:31:11;95545.72;;;17.19;44.19
7754;BME280;3921;42.266;23.122;2022-09-20T10:34:08;95497.91;;;17.06;38.59
7754;BME280;3921;42.266;23.122;2022-09-20T10:37:20;95276.22;;;15.73;39.61
7754;BME280;3921;42.266;23.122;2022-09-20T10:40:40;95630.06;;;18.37;39.40
7754;BME280;3921;42.266;23.122;2022-09-20T10:47:23;95290.06;;;16.45;42.14
7754;BME280;3921;42.266;23.122;2022-09-20T11:43:44;95235.28;;;18.49;35.13
7754;BME280;3921;42.266;23.122;2022-09-20T11:46:37;95685.31;;;21.19;36.60
7754;BME280;3921;42.266;23.122;2022-09-20T14:17:44;95197.47;;;18.82;35.85
7754;BME280;3921;42.266;23.122;2022-09-20T14:20:18;95431.22;;;20.34;34.99
7754;BME280;3921;42.266;23.122;2022-09-20T14:22:54;95506.03;;;20.55;34.64
7754;BME280;3921;42.266;23.122;2022-09-20T14:25:23;95265.22;;;18.84;35.01
7754;BME280;3921;42.266;23.122;2022-09-20T14:30:36;95404.53;;;19.84;34.43
7754;BME280;3921;42.266;23.122;2022-09-20T14:33:14;95192.84;;;18.29;34.51
7754;BME280;3921;42.266;23.122;2022-09-20T14:35:47;95307.16;;;19.17;35.20
7754;BME280;3921;42.266;23.122;2022-09-20T14:38:17;95566.69;;;20.68;35.75
7754;BME280;3921;42.266;23.122;2022-09-20T14:40:46;95251.13;;;18.55;36.41
7754;BME280;3921;42.266;23.122;2022-09-20T14:43:29;95526.88;;;20.25;36.68
7754;BME280;3921;42.266;23.122;2022-09-20T14:46:01;95173.16;;;17.92;37.23
7754;BME280;3921;42.266;23.122;2022-09-20T16:03:44;95381.16;;;20.12;35.08
7754;BME280;3921;42.266;23.122;2022-09-20T16:06:21;95255.69;;;18.90;35.96
7754;BME280;3921;42.266;23.122;2022-09-20T16:08:51;95397.38;;;19.52;36.62
7754;BME280;3921;42.266;23.122;2022-09-20T16:11:19;95338.16;;;18.86;36.90
7754;BME280;3921;42.266;23.122;2022-09-20T16:13:58;95659.38;;;20.50;37.50
7754;BME280;3921;42.266;23.122;2022-09-20T16:16:39;95423.69;;;18.90;37.89
7754;BME280;3921;42.266;23.122;2022-09-20T16:19:19;95237.28;;;17.53;38.48
7754;BME280;3921;42.266;23.122;2022-09-20T16:21:46;95226.31;;;17.29;38.90
7754;BME280;3921;42.266;23.122;2022-09-20T16:24:14;95352.66;;;17.96;39.48
7754;BME280;3921;42.266;23.122;2022-09-20T16:26:42;95263.28;;;17.13;39.50
7754;BME280;3921;42.266;23.122;2022-09-20T16:29:09;95226.03;;;16.90;40.08
7754;BME280;3921;42.266;23.122;2022-09-20T16:31:41;95321.16;;;17.28;39.94
7754;BME280;3921;42.266;23.122;2022-09-20T16:34:14;95455.81;;;18.01;40.33
7754;BME280;3921;42.266;23.122;2022-09-20T16:36:43;95218.34;;;16.41;40.37
7754;BME280;3921;42.266;23.122;2022-09-20T16:39:12;95131.81;;;15.74;41.02
7754;BME280;3921;42.266;23.122;2022-09-20T16:41:40;95535.50;;;18.25;41.18
7754;BME280;3921;42.266;23.122;2022-09-20T16:44:07;95537.31;;;17.97;41.56
7754;BME280;3921;42.266;23.122;2022-09-20T16:49:10;95279.94;;;16.17;41.59
7754;BME280;3921;42.266;23.122;2022-09-20T16:51:41;95342.84;;;16.60;41.75
7754;BME280;3921;42.266;23.122;2022-09-20T16:54:10;95444.47;;;17.10;41.90
7754;BME280;3921;42.266;23.122;2022-09-20T16:56:39;95614.97;;;18.07;42.00
7754;BME280;3921;42.266;23.122;2022-09-20T16:59:08;95178.16;;;15.19;41.99
7754;BME280;3921;42.266;23.122;2022-09-20T17:01:50;95265.16;;;15.75;42.33
7754;BME280;3921;42.266;23.122;2022-09-20T17:04:18;95394.88;;;16.73;42.67
7754;BME280;3921;42.266;23.122;2022-09-20T17:06:48;95552.69;;;17.41;42.90
7754;BME280;3921;42.266;23.122;2022-09-20T17:09:16;95304.31;;;15.93;43.13
7754;BME280;3921;42.266;23.122;2022-09-20T17:11:45;95215.53;;;15.40;43.54
7754;BME280;3921;42.266;23.122;2022-09-20T17:14:14;95412.66;;;16.44;43.67
7754;BME280;3921;42.266;23.122;2022-09-20T17:16:43;95434.34;;;16.54;43.42
7754;BME280;3921;42.266;23.122;2022-09-20T17:19:18;95238.41;;;15.37;43.71
7754;BME280;3921;42.266;23.122;2022-09-20T17:21:48;95548.94;;;17.24;44.57
7754;BME280;3921;42.266;23.122;2022-09-20T17:24:17;95210.94;;;14.94;44.00
7754;BME280;3921;42.266;23.122;2022-09-20T17:27:05;95543.66;;;17.04;43.42
7754;BME280;3921;42.266;23.122;2022-09-20T17:44:34;95370.56;;;15.50;44.98
7754;BME280;3921;42.266;23.122;2022-09-20T17:47:03;95700.78;;;17.43;45.42
7754;BME280;3921;42.266;23.122;2022-09-20T17:52:52;95420.91;;;15.60;45.60
7754;BME280;3921;42.266;23.122;2022-09-20T18:38:54;95294.56;;;14.18;47.56
7754;BME280;3921;42.266;23.122;2022-09-20T18:47:27;95259.41;;;13.70;47.89
7754;BME280;3921;42.266;23.122;2022-09-20T18:53:38;95775.69;;;16.97;48.23
7754;BME280;3921;42.266;23.122;2022-09-20T18:56:25;95302.94;;;13.81;48.16
7754;BME280;3921;42.266;23.122;2022-09-20T18:59:15;95748.47;;;16.69;49.63
7754;BME280;3921;42.266;23.122;2022-09-20T19:02:20;95270.50;;;13.63;49.74
7754;BME280;3921;42.266;23.122;2022-09-20T19:05:20;95323.13;;;13.82;49.44
7754;BME280;3921;42.266;23.122;2022-09-20T19:10:48;95451.84;;;14.69;50.24
7754;BME280;3921;42.266;23.122;2022-09-20T19:13:38;95421.63;;;14.23;50.46
7754;BME280;3921;42.266;23.122;2022-09-20T19:16:20;95507.47;;;14.68;50.15
7754;BME280;3921;42.266;23.122;2022-09-20T19:19:06;95488.13;;;14.67;50.07
7754;BME280;3921;42.266;23.122;2022-09-20T19:21:42;95281.94;;;13.39;50.16
7754;BME280;3921;42.266;23.122;2022-09-20T19:24:26;95279.75;;;13.22;50.44
7754;BME280;3921;42.266;23.122;2022-09-20T19:37:24;95237.50;;;12.87;51.33
7754;BME280;3921;42.266;23.122;2022-09-20T19:40:06;95307.34;;;13.29;51.13
7754;BME280;3921;42.266;23.122;2022-09-20T19:42:46;95312.25;;;13.37;51.06
7754;BME280;3921;42.266;23.122;2022-09-20T19:45:25;95329.19;;;13.32;51.33
7754;BME280;3921;42.266;23.122;2022-09-20T19:48:05;95231.84;;;12.75;51.39
7754;BME280;3921;42.266;23.122;2022-09-20T19:50:37;95308.91;;;13.35;50.92
7754;BME280;3921;42.266;23.122;2022-09-20T19:53:16;95310.09;;;13.16;51.12
7754;BME280;3921;42.266;23.122;2022-09-20T19:55:46;95350.75;;;13.48;50.75
7754;BME280;3921;42.266;23.122;2022-09-20T19:58:15;95467.00;;;14.29;50.67
7754;BME280;3921;42.266;23.122;2022-09-20T20:00:43;95292.59;;;13.08;51.00
7754;BME280;3921;42.266;23.122;2022-09-20T20:03:13;95289.94;;;13.16;50.69
7754;BME280;3921;42.266;23.122;2022-09-20T20:05:47;95483.41;;;14.08;50.82
7754;BME280;3921;42.266;23.122;2022-09-20T20:08:40;95278.66;;;12.90;51.20
7754;BME280;3921;42.266;23.122;2022-09-20T20:11:21;95489.19;;;14.13;50.33
7754;BME280;3921;42.266;23.122;2022-09-20T20:14:02;95245.75;;;12.48;50.60
7754;BME280;3921;42.266;23.122;2022-09-20T20:16:42;95339.09;;;12.93;50.58
7754;BME280;3921;42.266;23.122;2022-09-20T20:19:34;95678.50;;;14.73;50.72
7754;BME280;3921;42.266;23.122;2022-09-20T20:22:11;95700.66;;;15.05;51.28
7754;BME280;3921;42.266;23.122;2022-09-20T20:24:46;95640.84;;;14.59;51.31
7754;BME280;3921;42.266;23.122;2022-09-20T20:27:16;95488.22;;;13.77;50.94
7754;BME280;3921;42.266;23.122;2022-09-20T20:29:58;95327.59;;;12.77;51.05
7754;BME280;3921;42.266;23.122;2022-09-20T20:49:56;95311.34;;;12.45;50.88
7754;BME280;3921;42.266;23.122;2022-09-20T20:53:20;95683.84;;;15.01;50.55
7754;BME280;3921;42.266;23.122;2022-09-20T21:14:03;95517.28;;;13.50;50.83
7754;BME280;3921;42.266;23.122;2022-09-20T21:16:43;95253.25;;;12.01;50.76
7754;BME280;3921;42.266;23.122;2022-09-20T21:19:26;95310.75;;;12.30;51.27
7754;BME280;3921;42.266;23.122;2022-09-20T21:22:12;95298.22;;;12.23;51.42
7754;BME280;3921;42.266;23.122;2022-09-20T21:33:04;95612.13;;;14.16;51.70
7754;BME280;3921;42.266;23.122;2022-09-20T21:46:59;95280.31;;;11.86;52.16
7754;BME280;3921;42.266;23.122;2022-09-20T21:49:59;95360.22;;;12.34;51.46
7754;BME280;3921;42.266;23.122;2022-09-20T21:52:45;95305.97;;;12.10;51.78
7754;BME280;3921;42.266;23.122;2022-09-20T21:55:28;95600.75;;;13.92;51.38
7754;BME280;3921;42.266;23.122;2022-09-20T21:58:13;95282.91;;;11.82;51.39
7754;BME280;3921;42.266;23.122;2022-09-20T22:01:01;95365.31;;;12.29;51.98
7754;BME280;3921;42.266;23.122;2022-09-20T22:03:40;95276.31;;;11.68;51.45
7754;BME280;3921;42.266;23.122;2022-09-20T22:06:46;95794.88;;;15.18;52.25
7754;BME280;3921;42.266;23.122;2022-09-20T22:09:32;95250.09;;;11.86;52.30
7754;BME280;3921;42.266;23.122;2022-09-20T22:12:15;95611.13;;;13.76;52.64
7754;BME280;3921;42.266;23.122;2022-09-20T22:14:42;95341.09;;;12.22;51.81
7754;BME280;3921;42.266;23.122;2022-09-20T22:17:10;95344.41;;;12.24;52.05
7754;BME280;3921;42.266;23.122;2022-09-20T22:19:40;95737.59;;;14.69;51.90
7754;BME280;3921;42.266;23.122;2022-09-20T22:22:23;95554.72;;;13.25;51.94
7754;BME280;3921;42.266;23.122;2022-09-20T22:24:58;95385.56;;;12.23;52.39
7754;BME280;3921;42.266;23.122;2022-09-20T22:27:44;95355.53;;;12.11;52.03
7754;BME280;3921;42.266;23.122;2022-09-20T22:30:21;95797.19;;;14.84;52.30
7754;BME280;3921;42.266;23.122;2022-09-20T22:33:08;95323.25;;;11.73;51.74
7754;BME280;3921;42.266;23.122;2022-09-20T22:35:43;95744.50;;;14.07;52.15
7754;BME280;3921;42.266;23.122;2022-09-20T22:38:38;95821.06;;;14.69;52.68
7754;BME280;3921;42.266;23.122;2022-09-20T23:32:22;95822.91;;;14.59;53.42
7754;BME280;3921;42.266;23.122;2022-09-20T23:38:17;95427.78;;;12.06;53.23
7754;BME280;3921;42.266;23.122;2022-09-20T23:40:45;95404.34;;;11.98;53.57
7754;BME280;3921;42.266;23.122;2022-09-20T23:43:12;95676.16;;;13.61;53.65
7754;BME280;3921;42.266;23.122;2022-09-20T23:45:39;95593.69;;;13.01;53.50
7754;BME280;3921;42.266;23.122;2022-09-20T23:48:08;95765.75;;;13.94;54.12
7754;BME280;3921;42.266;23.122;2022-09-20T23:50:35;95642.88;;;13.34;53.76
7754;BME280;3921;42.266;23.122;2022-09-20T23:53:03;95618.75;;;13.15;53.60
7754;BME280;3921;42.266;23.122;2022-09-20T23:55:32;95711.44;;;13.67;53.70
7754;BME280;3921;42.266;23.122;2022-09-20T23:57:59;95561.28;;;12.72;53.54
